createdAt,value
2022-09-20T00:07:03.778Z,11.50
2022-09-20T00:09:34.363Z,11.50
2022-09-20T00:12:18.391Z,11.50
2022-09-20T00:19:04.345Z,11.50
2022-09-20T00:21:40.047Z,11.50
2022-09-20T00:24:17.561Z,11.50
2022-09-20T00:26:47.614Z,11.50
2022-09-20T00:29:16.963Z,11.40
2022-09-20T00:31:46.174Z,11.40
2022-09-20T00:34:32.300Z,11.40
2022-09-20T00:37:01.309Z,10.50
2022-09-20T00:39:31.966Z,11.30
2022-09-20T00:42:12.695Z,11.30
2022-09-20T00:44:51.356Z,11.40
2022-09-20T00:47:27.560Z,12.00
2022-09-20T00:50:28.120Z,11.40
2022-09-20T00:57:21.266Z,11.40
2022-09-20T00:59:51.843Z,11.40
2022-09-20T01:12:08.227Z,11.50
2022-09-20T01:14:38.778Z,11.30
2022-09-20T01:17:09.416Z,11.20
2022-09-20T01:19:44.365Z,11.30
2022-09-20T01:22:58.816Z,11.30
2022-09-20T01:25:56.192Z,11.30
2022-09-20T01:28:27.392Z,11.20
2022-09-20T01:31:04.993Z,11.30
2022-09-20T01:33:51.052Z,11.10
2022-09-20T01:36:26.122Z,11.20
2022-09-20T01:39:05.648Z,11.30
2022-09-20T01:42:02.791Z,11.20
2022-09-20T01:44:40.245Z,11.20
2022-09-20T01:47:18.440Z,11.20
2022-09-20T01:50:25.316Z,11.30
2022-09-20T01:57:44.079Z,11.20
2022-09-20T02:00:21.824Z,11.50
2022-09-20T02:07:43.136Z,11.30
2022-09-20T02:10:42.645Z,11.30
2022-09-20T02:17:55.099Z,11.30
2022-09-20T02:20:34.081Z,11.20
2022-09-20T02:27:13.945Z,11.30
2022-09-20T02:29:50.122Z,11.20
2022-09-20T02:33:16.110Z,11.20
2022-09-20T02:35:59.984Z,11.60
2022-09-20T02:38:43.789Z,11.30
2022-09-20T02:41:48.577Z,11.20
2022-09-20T02:44:55.966Z,11.20
2022-09-20T02:47:34.390Z,11.20
2022-09-20T02:59:07.259Z,11.10
2022-09-20T03:02:40.925Z,11.40
2022-09-20T03:06:06.697Z,11.40
2022-09-20T03:08:45.141Z,11.30
2022-09-20T03:11:20.982Z,12.30
2022-09-20T03:14:04.319Z,11.40
2022-09-20T03:17:43.698Z,11.50
2022-09-20T03:20:26.677Z,11.50
2022-09-20T03:26:57.449Z,11.50
2022-09-20T03:29:49.366Z,10.60
2022-09-20T03:32:37.378Z,11.50
2022-09-20T03:35:24.433Z,11.60
2022-09-20T03:38:05.953Z,11.30
2022-09-20T03:41:11.931Z,11.50
2022-09-20T03:43:57.157Z,11.70
2022-09-20T03:51:24.070Z,11.10
2022-09-20T03:54:32.782Z,11.60
2022-09-20T03:57:16.071Z,11.60
2022-09-20T04:00:11.688Z,11.70
2022-09-20T04:03:22.131Z,11.70
2022-09-20T04:06:06.850Z,10.10
2022-09-20T04:08:54.919Z,11.60
2022-09-20T04:16:39.340Z,11.50
2022-09-20T04:19:17.384Z,11.50
2022-09-20T04:21:54.974Z,11.60
2022-09-20T04:24:36.922Z,11.80
2022-09-20T04:27:12.106Z,11.60
2022-09-20T04:29:46.850Z,11.50
2022-09-20T04:37:02.895Z,11.40
2022-09-20T04:39:44.457Z,11.40
2022-09-20T04:43:17.627Z,11.50
2022-09-20T04:46:05.652Z,11.50
2022-09-20T04:49:04.014Z,11.60
2022-09-20T04:52:05.402Z,11.60
2022-09-20T04:55:04.117Z,11.60
2022-09-20T04:58:20.967Z,11.60
2022-09-20T05:05:48.111Z,11.60
2022-09-20T05:08:58.021Z,11.70
2022-09-20T05:15:59.840Z,11.60
2022-09-20T05:18:59.600Z,11.60
2022-09-20T05:30:07.316Z,11.70
2022-09-20T05:32:50.212Z,11.60
2022-09-20T05:35:28.076Z,11.60
2022-09-20T05:38:06.298Z,11.60
2022-09-20T05:40:50.564Z,11.60
2022-09-20T05:43:27.172Z,11.60
2022-09-20T05:46:06.844Z,11.60
2022-09-20T05:48:47.256Z,11.60
2022-09-20T05:51:30.466Z,11.80
2022-09-20T05:54:23.299Z,11.60
2022-09-20T05:57:02.196Z,11.70
2022-09-20T05:59:45.145Z,11.70
2022-09-20T06:02:26.771Z,11.70
2022-09-20T06:05:04.871Z,11.70
2022-09-20T06:07:59.338Z,11.70
2022-09-20T06:11:01.739Z,11.70
2022-09-20T06:13:42.560Z,11.70
2022-09-20T06:16:19.857Z,11.70
2022-09-20T06:18:56.597Z,11.70
2022-09-20T06:21:37.319Z,11.70
2022-09-20T06:24:13.859Z,11.60
2022-09-20T06:26:44.789Z,11.60
2022-09-20T06:29:16.279Z,11.60
2022-09-20T06:32:42.378Z,11.60
2022-09-20T06:35:11.702Z,11.60
2022-09-20T06:38:06.742Z,11.60
2022-09-20T06:40:57.881Z,11.50
2022-09-20T06:43:26.683Z,11.50
2022-09-20T06:45:55.448Z,11.60
2022-09-20T06:48:25.574Z,11.60
2022-09-20T06:50:54.586Z,11.60
2022-09-20T06:57:39.267Z,11.70
2022-09-20T07:00:11.922Z,11.60
2022-09-20T07:02:46.780Z,11.60
2022-09-20T07:05:49.446Z,11.70
2022-09-20T07:08:18.607Z,11.70
2022-09-20T07:10:47.590Z,11.80
2022-09-20T07:13:28.008Z,12.00
2022-09-20T07:16:04.019Z,11.50
2022-09-20T07:18:33.867Z,12.10
2022-09-20T07:21:06.672Z,10.30
2022-09-20T07:23:35.678Z,12.00
2022-09-20T07:26:04.416Z,12.10
2022-09-20T07:28:36.521Z,12.30
2022-09-20T07:31:33.917Z,12.10
2022-09-20T07:34:08.493Z,12.30
2022-09-20T07:36:37.643Z,12.40
2022-09-20T07:39:06.849Z,12.50
2022-09-20T07:42:09.712Z,12.40
2022-09-20T07:44:42.462Z,12.60
2022-09-20T07:47:14.346Z,12.60
2022-09-20T07:49:43.266Z,12.60
2022-09-20T07:52:20.688Z,12.60
2022-09-20T07:54:50.205Z,12.70
2022-09-20T07:57:18.661Z,12.60
2022-09-20T07:59:49.084Z,12.70
2022-09-20T08:02:18.490Z,12.70
2022-09-20T08:04:47.389Z,12.70
2022-09-20T08:07:16.095Z,12.80
2022-09-20T08:09:44.752Z,12.90
2022-09-20T08:16:29.112Z,13.00
2022-09-20T08:19:00.320Z,13.10
2022-09-20T08:21:32.768Z,13.20
2022-09-20T08:24:35.628Z,13.30
2022-09-20T08:27:04.802Z,13.40
2022-09-20T08:29:35.579Z,13.90
2022-09-20T08:32:06.121Z,13.80
2022-09-20T08:35:04.061Z,13.80
2022-09-20T08:37:33.132Z,13.90
2022-09-20T08:40:01.870Z,14.00
2022-09-20T08:46:35.679Z,14.10
2022-09-20T08:49:10.932Z,14.10
2022-09-20T08:51:48.485Z,14.00
2022-09-20T08:54:17.835Z,13.80
2022-09-20T08:56:48.689Z,13.70
2022-09-20T08:59:20.040Z,13.50
2022-09-20T09:01:50.067Z,13.40
2022-09-20T09:04:23.922Z,13.30
2022-09-20T09:06:53.899Z,13.20
2022-09-20T09:09:24.937Z,13.20
2022-09-20T09:11:55.406Z,13.10
2022-09-20T09:14:46.279Z,13.10
2022-09-20T09:17:43.978Z,13.20
2022-09-20T09:20:21.852Z,13.40
2022-09-20T09:23:27.278Z,13.60
2022-09-20T09:25:57.499Z,13.80
2022-09-20T09:28:31.831Z,14.10
2022-09-20T09:31:16.065Z,14.20
2022-09-20T09:33:48.026Z,14.20
2022-09-20T09:36:22.751Z,14.10
2022-09-20T09:38:52.071Z,14.00
2022-09-20T09:41:27.429Z,13.90
2022-09-20T09:44:05.165Z,13.80
2022-09-20T09:46:35.218Z,13.70
2022-09-20T09:50:12.566Z,13.70
2022-09-20T09:52:43.115Z,13.80
2022-09-20T09:55:52.831Z,13.90
2022-09-20T09:58:55.047Z,14.00
2022-09-20T10:02:24.300Z,14.10
2022-09-20T10:06:02.686Z,14.20
2022-09-20T10:08:46.096Z,14.40
2022-09-20T10:11:29.318Z,14.30
2022-09-20T10:14:06.452Z,14.30
2022-09-20T10:16:48.307Z,14.40
2022-09-20T10:38:20.101Z,14.10
2022-09-20T10:48:33.788Z,13.70
2022-09-20T10:51:13.005Z,13.70
2022-09-20T11:40:47.148Z,14.90
2022-09-20T11:43:19.845Z,14.90
2022-09-20T11:45:54.526Z,14.80
2022-09-20T11:48:27.077Z,14.70
2022-09-20T11:56:23.833Z,15.00
2022-09-20T20:27:58.079Z,12.30
2022-09-20T20:45:53.790Z,12.10
2022-09-20T20:51:05.220Z,12.00
2022-09-20T20:53:38.402Z,12.00
2022-09-20T21:04:44.565Z,12.00
2022-09-20T21:09:47.355Z,12.00
2022-09-20T21:12:55.626Z,12.10
2022-09-20T21:15:24.919Z,12.10
2022-09-20T21:17:57.220Z,12.10
2022-09-20T21:25:42.916Z,12.10
2022-09-20T21:30:42.418Z,12.10
2022-09-20T21:33:11.751Z,12.10
2022-09-20T21:36:25.488Z,12.10
2022-09-20T21:38:56.863Z,12.20
2022-09-20T21:46:32.639Z,12.00
2022-09-20T21:49:15.438Z,12.00
2022-09-20T21:52:15.828Z,11.90
2022-09-20T21:58:22.267Z,11.70
2022-09-20T22:01:01.126Z,11.70
2022-09-20T22:09:01.986Z,11.60
